Time;durP1;ratioP1;P1;durP2;ratioP2;P2;SDS_P1;SDS_P2;PMS_P1;PMS_P2;Temp;Humidity;BMP_temperature;BMP_pressure;BME280_temperature;BME280_humidity;BME280_pressure;Samples;Min_cycle;Max_cycle;Signal;HPM_P1;HPM_P2
2021/11/26 00:00:15;;;;;;;43.47;25.33;;;;;;;;;;5055627;28;20075;-74
2021/11/26 00:02:40;;;;;;;39.13;23.40;;;;;;;;;;5055122;28;20036;-73
2021/11/26 00:05:07;;;;;;;37.67;23.08;;;;;;;;;;5037528;28;20032;-76
2021/11/26 00:07:38;;;;;;;38.80;21.85;;;;;;;;;;5055184;28;20045;-77
2021/11/26 00:10:04;;;;;;;40.65;22.20;;;;;;;;;;5037419;28;20039;-77
2021/11/26 00:12:29;;;;;;;39.30;22.92;;;;;;;;;;5055116;28;20020;-72
2021/11/26 00:17:27;;;;;;;37.85;21.10;;;;;;;;;;5037247;28;20037;-68
2021/11/26 00:19:52;;;;;;;39.55;23.08;;;;;;;;;;5036646;28;20087;-68
2021/11/26 00:22:18;;;;;;;37.30;21.95;;;;;;;;;;5037042;28;20171;-67
2021/11/26 00:24:44;;;;;;;39.38;22.42;;;;;;;;;;5054804;28;20465;-67
2021/11/26 00:27:09;;;;;;;36.78;21.58;;;;;;;;;;5055034;28;20037;-68
2021/11/26 00:29:35;;;;;;;35.45;22.15;;;;;;;;;;5054911;28;20039;-67
2021/11/26 00:32:00;;;;;;;34.70;21.13;;;;;;;;;;5054403;28;20090;-67
2021/11/26 00:34:26;;;;;;;38.13;23.00;;;;;;;;;;5054312;28;20083;-67
2021/11/26 00:36:52;;;;;;;34.50;20.85;;;;;;;;;;5054535;28;20033;-67
2021/11/26 00:39:18;;;;;;;36.00;21.58;;;;;;;;;;5054500;28;20028;-69
2021/11/26 00:41:44;;;;;;;33.92;20.17;;;;;;;;;;5054578;28;20076;-67
2021/11/26 00:44:09;;;;;;;34.80;20.35;;;;;;;;;;5036487;28;20064;-67
2021/11/26 00:46:35;;;;;;;35.90;21.23;;;;;;;;;;5054371;28;20404;-67
2021/11/26 00:49:01;;;;;;;36.88;22.77;;;;;;;;;;5035752;28;20538;-67
2021/11/26 00:51:30;;;;;;;32.08;20.58;;;;;;;;;;5035974;28;20048;-68
2021/11/26 00:53:55;;;;;;;34.97;21.65;;;;;;;;;;5054387;28;20045;-67
2021/11/26 00:56:21;;;;;;;36.30;22.55;;;;;;;;;;5054416;28;20120;-67
2021/11/26 00:58:46;;;;;;;34.30;22.50;;;;;;;;;;5036448;28;20033;-67
2021/11/26 01:01:12;;;;;;;36.60;22.70;;;;;;;;;;5053931;28;20072;-73
2021/11/26 01:03:37;;;;;;;39.05;23.08;;;;;;;;;;5054020;28;20021;-73
2021/11/26 01:06:03;;;;;;;40.15;22.33;;;;;;;;;;5054096;28;20040;-74
2021/11/26 01:08:28;;;;;;;40.65;23.27;;;;;;;;;;5053822;28;20020;-76
2021/11/26 01:10:54;;;;;;;41.03;24.17;;;;;;;;;;5053919;28;20370;-73
2021/11/26 01:13:19;;;;;;;39.85;24.63;;;;;;;;;;5053911;28;20033;-73
2021/11/26 01:15:46;;;;;;;40.97;23.98;;;;;;;;;;5053652;28;20048;-73
2021/11/26 01:18:12;;;;;;;38.95;23.08;;;;;;;;;;5035863;28;20025;-73
2021/11/26 01:20:38;;;;;;;41.67;24.17;;;;;;;;;;5053526;28;20037;-68
2021/11/26 01:23:04;;;;;;;42.85;24.70;;;;;;;;;;5053483;28;20047;-67
2021/11/26 01:25:30;;;;;;;41.78;24.70;;;;;;;;;;5035896;28;20041;-67
2021/11/26 01:27:56;;;;;;;42.08;24.95;;;;;;;;;;5035896;28;20121;-67
2021/11/26 01:30:29;;;;;;;42.55;25.17;;;;;;;;;;5053510;28;20120;-67
2021/11/26 01:32:56;;;;;;;46.67;26.52;;;;;;;;;;5035952;28;20041;-67
2021/11/26 01:35:22;;;;;;;51.60;29.15;;;;;;;;;;5053408;28;20033;-67
2021/11/26 01:37:48;;;;;;;47.88;27.50;;;;;;;;;;5053326;28;20033;-67
2021/11/26 01:40:15;;;;;;;45.13;26.40;;;;;;;;;;5035527;28;20060;-67
2021/11/26 01:42:40;;;;;;;46.58;26.40;;;;;;;;;;5053584;28;20040;-68
2021/11/26 01:45:06;;;;;;;41.67;24.65;;;;;;;;;;5053301;28;20021;-67
2021/11/26 01:47:31;;;;;;;39.58;23.70;;;;;;;;;;5018827;28;20037;-67
2021/11/26 01:49:57;;;;;;;40.58;23.70;;;;;;;;;;5053589;28;20041;-67
2021/11/26 01:52:23;;;;;;;39.00;22.52;;;;;;;;;;5053323;28;20051;-68
2021/11/26 01:54:49;;;;;;;41.40;24.33;;;;;;;;;;5053128;28;20035;-67
2021/11/26 01:57:17;;;;;;;38.13;23.60;;;;;;;;;;5053250;28;20061;-67
2021/11/26 01:59:43;;;;;;;38.25;22.92;;;;;;;;;;5053315;28;20481;-67
2021/11/26 02:02:09;;;;;;;37.50;21.98;;;;;;;;;;5053092;28;20037;-66
2021/11/26 02:05:05;;;;;;;38.00;22.35;;;;;;;;;;5035620;28;20482;-75
2021/11/26 02:08:26;;;;;;;34.25;20.30;;;;;;;;;;5021251;28;20052;-67
2021/11/26 02:11:09;;;;;;;37.38;22.13;;;;;;;;;;5023987;28;20507;-67
2021/11/26 02:13:42;;;;;;;39.13;22.13;;;;;;;;;;5035475;28;20073;-68
2021/11/26 02:16:08;;;;;;;42.33;24.60;;;;;;;;;;5052997;28;20041;-67
2021/11/26 02:18:53;;;;;;;39.22;24.27;;;;;;;;;;5056696;28;20056;-68
2021/11/26 02:21:20;;;;;;;39.60;23.08;;;;;;;;;;5057168;28;20111;-73
2021/11/26 02:23:48;;;;;;;41.42;25.15;;;;;;;;;;5039452;28;20031;-74
2021/11/26 02:26:35;;;;;;;42.28;24.65;;;;;;;;;;5056975;28;20124;-74
2021/11/26 02:29:00;;;;;;;40.42;24.45;;;;;;;;;;5057453;28;20488;-67
2021/11/26 02:31:26;;;;;;;39.45;23.65;;;;;;;;;;5056950;28;20025;-67
2021/11/26 02:33:51;;;;;;;44.10;24.50;;;;;;;;;;5056562;28;20036;-72
2021/11/26 02:36:17;;;;;;;39.53;24.20;;;;;;;;;;5056995;28;20115;-66
2021/11/26 02:38:42;;;;;;;43.17;24.42;;;;;;;;;;5056706;28;20041;-66
2021/11/26 02:41:08;;;;;;;42.95;24.75;;;;;;;;;;5056916;28;20042;-67
2021/11/26 02:43:33;;;;;;;43.03;24.80;;;;;;;;;;5039028;28;20037;-67
2021/11/26 02:45:59;;;;;;;46.60;25.98;;;;;;;;;;5047883;28;20036;-66
2021/11/26 02:48:24;;;;;;;42.83;24.60;;;;;;;;;;5056201;28;20036;-66
2021/11/26 02:50:50;;;;;;;44.22;25.10;;;;;;;;;;5056664;28;20102;-66
2021/11/26 02:53:16;;;;;;;47.15;25.65;;;;;;;;;;5056358;28;20098;-66
2021/11/26 02:55:41;;;;;;;45.40;25.27;;;;;;;;;;5056596;28;20082;-66
2021/11/26 02:58:07;;;;;;;44.25;25.98;;;;;;;;;;5056452;28;20469;-72
2021/11/26 03:00:33;;;;;;;44.30;25.42;;;;;;;;;;5038572;28;20040;-73
2021/11/26 03:02:58;;;;;;;46.42;26.17;;;;;;;;;;5056429;28;20047;-73
2021/11/26 03:05:25;;;;;;;43.35;24.33;;;;;;;;;;5038805;28;20021;-72
2021/11/26 03:07:51;;;;;;;43.42;25.63;;;;;;;;;;5056259;28;20028;-73
2021/11/26 03:10:18;;;;;;;44.17;25.52;;;;;;;;;;5056152;28;20392;-72
2021/11/26 03:12:47;;;;;;;42.85;24.95;;;;;;;;;;5056220;28;20036;-72
2021/11/26 03:15:14;;;;;;;38.25;21.85;;;;;;;;;;5056383;28;20037;-72
2021/11/26 03:17:39;;;;;;;40.28;23.95;;;;;;;;;;5055974;28;20041;-67
2021/11/26 03:20:05;;;;;;;42.95;24.95;;;;;;;;;;5056048;28;20078;-66
2021/11/26 03:22:31;;;;;;;43.80;25.17;;;;;;;;;;5055912;28;20043;-66
2021/11/26 03:24:56;;;;;;;43.97;24.77;;;;;;;;;;5056015;28;20040;-67
2021/11/26 03:27:22;;;;;;;44.55;26.08;;;;;;;;;;5055943;28;20036;-67
2021/11/26 03:29:47;;;;;;;44.20;24.52;;;;;;;;;;5054510;28;20029;-67
2021/11/26 03:32:13;;;;;;;42.13;24.75;;;;;;;;;;5055847;28;20409;-72
2021/11/26 03:34:39;;;;;;;47.72;26.27;;;;;;;;;;5055653;28;20063;-72
2021/11/26 03:37:05;;;;;;;43.63;24.60;;;;;;;;;;5055757;28;20045;-71
2021/11/26 03:39:30;;;;;;;44.25;25.33;;;;;;;;;;5037760;28;20032;-72
2021/11/26 03:41:56;;;;;;;44.80;25.33;;;;;;;;;;5055395;28;20491;-72
2021/11/26 03:44:21;;;;;;;46.08;24.33;;;;;;;;;;5055456;28;20431;-71
2021/11/26 03:46:47;;;;;;;49.03;26.67;;;;;;;;;;5037935;28;20029;-72
2021/11/26 03:49:12;;;;;;;46.72;27.42;;;;;;;;;;5037360;28;20040;-71
2021/11/26 03:51:38;;;;;;;47.05;27.02;;;;;;;;;;5037675;28;20396;-72
2021/11/26 03:54:03;;;;;;;48.95;25.70;;;;;;;;;;5055812;28;20036;-73
2021/11/26 03:56:29;;;;;;;70.57;34.55;;;;;;;;;;5055339;28;20556;-71
2021/11/26 03:58:54;;;;;;;81.38;37.78;;;;;;;;;;5055387;28;20021;-72
2021/11/26 04:01:21;;;;;;;64.90;33.95;;;;;;;;;;5055291;28;20029;-72
2021/11/26 04:03:47;;;;;;;58.15;31.90;;;;;;;;;;5055049;28;20021;-71
2021/11/26 04:06:12;;;;;;;65.25;36.05;;;;;;;;;;5055266;28;20041;-71
2021/11/26 04:08:38;;;;;;;51.97;29.73;;;;;;;;;;5055189;28;20067;-71
2021/11/26 04:11:03;;;;;;;56.60;32.58;;;;;;;;;;5054977;28;20090;-71
2021/11/26 04:13:29;;;;;;;86.30;43.42;;;;;;;;;;5055297;28;20048;-72
2021/11/26 04:16:01;;;;;;;47.47;26.23;;;;;;;;;;5055135;28;20090;-64
2021/11/26 04:18:27;;;;;;;50.95;27.05;;;;;;;;;;5054972;28;20045;-71
2021/11/26 04:20:53;;;;;;;49.20;26.60;;;;;;;;;;5037569;28;20495;-71
2021/11/26 04:23:18;;;;;;;51.25;28.40;;;;;;;;;;5054829;28;20033;-71
2021/11/26 04:25:44;;;;;;;61.40;32.95;;;;;;;;;;5054713;28;20036;-72
2021/11/26 04:28:09;;;;;;;55.75;31.55;;;;;;;;;;5054490;28;20033;-72
2021/11/26 04:30:34;;;;;;;44.08;25.50;;;;;;;;;;5054777;28;20119;-71
2021/11/26 04:33:00;;;;;;;43.33;25.15;;;;;;;;;;5054640;28;20087;-71
2021/11/26 04:35:26;;;;;;;39.97;24.08;;;;;;;;;;5054427;28;20037;-71
2021/11/26 04:37:51;;;;;;;39.28;23.48;;;;;;;;;;5054632;28;20493;-72
2021/11/26 04:40:17;;;;;;;40.42;24.10;;;;;;;;;;5054127;28;20115;-65
2021/11/26 04:42:44;;;;;;;40.83;24.48;;;;;;;;;;5036700;28;20416;-66
2021/11/26 04:45:11;;;;;;;39.15;24.13;;;;;;;;;;5054493;28;20048;-66
2021/11/26 04:47:37;;;;;;;42.30;24.05;;;;;;;;;;5054182;28;20033;-68
2021/11/26 04:50:03;;;;;;;44.78;24.77;;;;;;;;;;5054506;28;20043;-67
2021/11/26 04:52:29;;;;;;;44.72;25.95;;;;;;;;;;5054465;28;20071;-72
2021/11/26 04:54:55;;;;;;;39.75;24.42;;;;;;;;;;5054466;28;20054;-72
2021/11/26 04:57:21;;;;;;;38.55;23.75;;;;;;;;;;5054037;28;20029;-71
2021/11/26 04:59:47;;;;;;;41.40;23.38;;;;;;;;;;5036794;28;20039;-71
2021/11/26 05:02:12;;;;;;;42.67;24.73;;;;;;;;;;5054173;28;20044;-73
2021/11/26 05:04:38;;;;;;;46.28;25.45;;;;;;;;;;5036318;28;20036;-72
2021/11/26 05:07:03;;;;;;;42.63;24.50;;;;;;;;;;5054230;28;20026;-72
2021/11/26 05:09:29;;;;;;;46.15;26.10;;;;;;;;;;5053684;28;20021;-71
2021/11/26 05:11:55;;;;;;;43.75;24.83;;;;;;;;;;5053508;28;20033;-72
2021/11/26 05:14:22;;;;;;;43.63;25.42;;;;;;;;;;5053323;28;20029;-71
2021/11/26 05:16:48;;;;;;;49.08;31.27;;;;;;;;;;5035767;28;20040;-72
2021/11/26 05:19:13;;;;;;;65.82;45.53;;;;;;;;;;5053669;28;20045;-71
2021/11/26 05:21:40;;;;;;;48.83;28.95;;;;;;;;;;5053715;28;20032;-73
2021/11/26 05:24:06;;;;;;;53.72;29.73;;;;;;;;;;5053852;28;20040;-72
2021/11/26 05:26:32;;;;;;;49.88;28.80;;;;;;;;;;5053567;28;20417;-71
2021/11/26 05:28:57;;;;;;;53.20;34.20;;;;;;;;;;5053491;28;20067;-71
2021/11/26 05:31:23;;;;;;;68.28;36.42;;;;;;;;;;5053016;28;20464;-72
2021/11/26 05:33:49;;;;;;;66.63;37.33;;;;;;;;;;5053366;28;20397;-72
2021/11/26 05:36:16;;;;;;;76.65;45.08;;;;;;;;;;5053350;28;20082;-71
2021/11/26 05:42:17;;;;;;;53.95;33.38;;;;;;;;;;5053707;28;20080;-72
2021/11/26 05:52:00;;;;;;;48.08;26.85;;;;;;;;;;5052919;28;20035;-69
2021/11/26 05:58:01;;;;;;;55.20;31.33;;;;;;;;;;5053746;28;20028;-70
2021/11/26 06:04:02;;;;;;;68.10;36.60;;;;;;;;;;5053496;28;20082;-70
2021/11/26 06:10:05;;;;;;;58.03;37.08;;;;;;;;;;5053375;28;20098;-70
2021/11/26 06:16:05;;;;;;;53.28;33.30;;;;;;;;;;5053577;28;20435;-70
2021/11/26 06:22:06;;;;;;;51.13;31.27;;;;;;;;;;5053527;28;20031;-70
2021/11/26 06:28:07;;;;;;;52.30;31.45;;;;;;;;;;5053461;28;20499;-70
2021/11/26 06:30:46;;;;;;;55.13;32.80;;;;;;;;;;5035490;28;20037;-70
2021/11/26 06:33:11;;;;;;;92.65;46.33;;;;;;;;;;5038623;28;20064;-70
2021/11/26 06:35:39;;;;;;;65.18;35.55;;;;;;;;;;5026815;28;20053;-70
2021/11/26 06:38:04;;;;;;;61.42;34.75;;;;;;;;;;5045574;28;20041;-70
2021/11/26 06:40:32;;;;;;;57.00;33.13;;;;;;;;;;5040292;28;20028;-70
2021/11/26 06:42:59;;;;;;;57.67;35.83;;;;;;;;;;5041798;28;20481;-70
2021/11/26 06:45:25;;;;;;;52.65;31.98;;;;;;;;;;5042306;28;20161;-69
2021/11/26 06:47:50;;;;;;;57.60;32.65;;;;;;;;;;5042228;28;21231;-69
2021/11/26 06:50:17;;;;;;;64.18;34.40;;;;;;;;;;5052138;28;20057;-70
2021/11/26 06:52:43;;;;;;;56.47;32.13;;;;;;;;;;5053566;28;20496;-69
2021/11/26 06:55:10;;;;;;;55.42;32.53;;;;;;;;;;5052682;28;20033;-74
2021/11/26 06:57:36;;;;;;;53.72;32.28;;;;;;;;;;5052611;28;20501;-74
2021/11/26 07:00:04;;;;;;;58.53;33.35;;;;;;;;;;5052691;28;20033;-74
2021/11/26 07:06:05;;;;;;;59.35;33.13;;;;;;;;;;5056578;28;20032;-75
2021/11/26 07:12:09;;;;;;;63.78;35.33;;;;;;;;;;5056783;28;20185;-74
2021/11/26 07:18:10;;;;;;;70.50;39.00;;;;;;;;;;5056389;28;20158;-76
2021/11/26 07:24:10;;;;;;;53.00;29.05;;;;;;;;;;5056203;28;20444;-74
2021/11/26 07:30:11;;;;;;;51.42;28.17;;;;;;;;;;5056424;28;20028;-73
2021/11/26 07:40:07;;;;;;;62.08;35.80;;;;;;;;;;5055985;28;20118;-73
2021/11/26 07:46:08;;;;;;;138.07;81.05;;;;;;;;;;5055824;28;20048;-73
2021/11/26 07:55:31;;;;;;;74.55;42.00;;;;;;;;;;5055938;28;20051;-72
2021/11/26 08:01:32;;;;;;;87.20;48.67;;;;;;;;;;5055813;28;20460;-75
2021/11/26 08:07:32;;;;;;;101.32;56.78;;;;;;;;;;5055706;28;20103;-74
2021/11/26 08:13:33;;;;;;;128.82;67.68;;;;;;;;;;5055602;28;20402;-73
2021/11/26 08:19:34;;;;;;;89.78;48.58;;;;;;;;;;5055506;28;20196;-72
2021/11/26 08:25:36;;;;;;;576.40;281.35;;;;;;;;;;5055144;28;20075;-73
2021/11/26 08:31:36;;;;;;;401.52;189.20;;;;;;;;;;5055236;28;20059;-73
2021/11/26 08:37:37;;;;;;;322.52;159.00;;;;;;;;;;5055108;28;20107;-73
2021/11/26 08:43:37;;;;;;;200.05;112.05;;;;;;;;;;5054761;28;20476;-74
2021/11/26 08:49:38;;;;;;;182.60;102.88;;;;;;;;;;5054639;28;20167;-74
2021/11/26 08:59:01;;;;;;;75.45;47.22;;;;;;;;;;5054719;28;20447;-73
2021/11/26 09:05:02;;;;;;;106.95;65.53;;;;;;;;;;5054288;28;20040;-73
2021/11/26 09:15:06;;;;;;;53.95;34.13;;;;;;;;;;5054438;28;20543;-73
2021/11/26 09:21:08;;;;;;;60.53;35.28;;;;;;;;;;5054321;28;20084;-73
2021/11/26 09:27:08;;;;;;;50.65;32.83;;;;;;;;;;5053343;28;20035;-73
2021/11/26 09:33:09;;;;;;;44.15;28.00;;;;;;;;;;5054147;28;20055;-73
2021/11/26 09:39:10;;;;;;;61.83;35.55;;;;;;;;;;5053992;28;20144;-73
2021/11/26 09:45:16;;;;;;;61.92;33.72;;;;;;;;;;5053622;28;20043;-73
2021/11/26 09:50:58;;;;;;;88.05;41.83;;;;;;;;;;5053884;28;19915;-73
2021/11/26 10:00:47;;;;;;;73.00;42.08;;;;;;;;;;5053736;28;20031;-74
2021/11/26 10:17:07;;;;;;;88.70;62.17;;;;;;;;;;5053595;28;20438;-73
2021/11/26 10:30:22;;;;;;;47.03;32.60;;;;;;;;;;5053224;28;20422;-73
2021/11/26 10:36:24;;;;;;;161.45;103.22;;;;;;;;;;5053442;28;20384;-72
2021/11/26 10:42:27;;;;;;;192.35;103.05;;;;;;;;;;5057080;28;20027;-72
2021/11/26 11:09:15;;;;;;;39.13;27.73;;;;;;;;;;5056874;28;20487;-72
2021/11/26 11:15:17;;;;;;;69.97;46.25;;;;;;;;;;5056724;28;20056;-72
2021/11/26 11:21:20;;;;;;;45.95;31.77;;;;;;;;;;5056360;28;20040;-72
2021/11/26 11:27:20;;;;;;;36.22;25.05;;;;;;;;;;5056546;28;20575;-72
2021/11/26 11:37:08;;;;;;;179.32;66.63;;;;;;;;;;5056072;28;20128;-72
2021/11/26 11:43:18;;;;;;;144.27;60.20;;;;;;;;;;5056208;28;20028;-72
2021/11/26 11:49:22;;;;;;;128.93;56.80;;;;;;;;;;5055381;28;20554;-72
2021/11/26 11:55:24;;;;;;;291.02;132.50;;;;;;;;;;5055986;28;20067;-72
2021/11/26 12:01:26;;;;;;;46.20;29.73;;;;;;;;;;5055897;28;20074;-72
2021/11/26 12:10:53;;;;;;;58.50;32.13;;;;;;;;;;5055684;28;20424;-72
2021/11/26 12:34:38;;;;;;;38.70;26.05;;;;;;;;;;5013483;28;20079;-72
2021/11/26 12:55:29;;;;;;;42.30;28.17;;;;;;;;;;5013182;28;20028;-72
2021/11/26 13:01:31;;;;;;;53.33;34.88;;;;;;;;;;5054525;28;20120;-71
2021/11/26 13:11:07;;;;;;;50.22;34.80;;;;;;;;;;5054530;28;20027;-71
2021/11/26 13:17:08;;;;;;;45.38;30.27;;;;;;;;;;5054711;28;20036;-72
2021/11/26 13:23:14;;;;;;;37.63;24.60;;;;;;;;;;5054317;28;20024;-72
2021/11/26 13:29:17;;;;;;;38.85;25.65;;;;;;;;;;5054214;28;20464;-71
2021/11/26 13:35:24;;;;;;;165.60;122.65;;;;;;;;;;5054121;28;20082;-72
2021/11/26 13:41:30;;;;;;;112.93;79.78;;;;;;;;;;5054030;28;20027;-71
2021/11/26 13:47:30;;;;;;;77.35;52.53;;;;;;;;;;5054096;28;20052;-72
2021/11/26 13:53:32;;;;;;;39.47;28.95;;;;;;;;;;5053870;28;20031;-72
2021/11/26 13:59:34;;;;;;;37.50;26.30;;;;;;;;;;5053803;28;20518;-71
2021/11/26 14:05:36;;;;;;;45.80;31.92;;;;;;;;;;5053375;28;20468;-70
2021/11/26 14:14:49;;;;;;;45.50;36.88;;;;;;;;;;5060090;28;20044;-71
2021/11/26 14:20:49;;;;;;;105.38;88.00;;;;;;;;;;5060214;28;20028;-71
2021/11/26 14:26:54;;;;;;;32.00;23.63;;;;;;;;;;5060183;28;20035;-71
2021/11/26 14:32:56;;;;;;;26.83;19.20;;;;;;;;;;5060146;28;20464;-71
2021/11/26 14:38:56;;;;;;;32.10;22.83;;;;;;;;;;5059872;28;20100;-71
2021/11/26 14:44:59;;;;;;;122.13;86.40;;;;;;;;;;5059907;28;20039;-71
2021/11/26 14:51:01;;;;;;;60.90;42.80;;;;;;;;;;5059980;28;20031;-71
2021/11/26 14:57:02;;;;;;;50.25;34.60;;;;;;;;;;5059969;28;20032;-71
2021/11/26 15:03:03;;;;;;;77.45;55.72;;;;;;;;;;5059600;28;20031;-73
2021/11/26 15:05:29;;;;;;;32.65;25.83;;;;;;;;;;5059548;28;20096;-73
2021/11/26 15:07:55;;;;;;;29.20;22.38;;;;;;;;;;5041158;28;20025;-73
2021/11/26 15:10:20;;;;;;;40.13;29.80;;;;;;;;;;5058755;28;20089;-73
2021/11/26 15:12:46;;;;;;;62.95;45.97;;;;;;;;;;5041443;28;20103;-73
2021/11/26 15:15:12;;;;;;;162.82;99.18;;;;;;;;;;5058986;28;20492;-73
2021/11/26 15:21:13;;;;;;;66.38;45.97;;;;;;;;;;5059441;28;20084;-73
2021/11/26 15:27:14;;;;;;;41.97;32.05;;;;;;;;;;5056521;28;20459;-73
2021/11/26 15:37:05;;;;;;;30.15;22.30;;;;;;;;;;5056340;28;20036;-73
2021/11/26 15:43:05;;;;;;;153.00;79.47;;;;;;;;;;5056239;28;20064;-73
2021/11/26 15:49:05;;;;;;;110.97;66.82;;;;;;;;;;5056101;28;20103;-73
2021/11/26 15:55:06;;;;;;;91.03;53.80;;;;;;;;;;5056021;28;20036;-72
2021/11/26 16:01:07;;;;;;;454.00;268.08;;;;;;;;;;5055639;28;20107;-71
2021/11/26 16:07:07;;;;;;;283.92;176.07;;;;;;;;;;5055742;28;20052;-71
2021/11/26 16:16:31;;;;;;;57.08;38.25;;;;;;;;;;5055561;28;20129;-71
2021/11/26 16:22:31;;;;;;;34.63;22.40;;;;;;;;;;5055490;28;20024;-71
2021/11/26 16:28:33;;;;;;;101.53;49.35;;;;;;;;;;5055606;28;20069;-70
2021/11/26 16:34:34;;;;;;;31.75;20.65;;;;;;;;;;5055285;28;20065;-71
2021/11/26 16:40:35;;;;;;;39.88;26.83;;;;;;;;;;5055192;28;20552;-71
2021/11/26 16:46:41;;;;;;;27.10;19.88;;;;;;;;;;5054784;28;20094;-71
2021/11/26 16:52:41;;;;;;;47.90;33.47;;;;;;;;;;5054643;28;20420;-71
2021/11/26 16:58:42;;;;;;;27.02;19.67;;;;;;;;;;5054821;28;20028;-71
2021/11/26 17:04:43;;;;;;;174.30;67.03;;;;;;;;;;5054587;28;20147;-71
2021/11/26 17:10:20;;;;;;;;;;;;;;;;;;5050503;28;20120;-71
2021/11/26 17:12:45;;;;;;;69.82;34.92;;;;;;;;;;5050205;28;20007;-71
2021/11/26 17:15:11;;;;;;;66.55;32.67;;;;;;;;;;5050979;28;20179;-71
2021/11/26 17:17:37;;;;;;;115.63;51.45;;;;;;;;;;5031546;28;20059;-71
2021/11/26 17:20:04;;;;;;;97.25;43.80;;;;;;;;;;5049775;28;20035;-71
2021/11/26 17:22:30;;;;;;;64.57;30.23;;;;;;;;;;5050209;28;20029;-71
2021/11/26 17:24:56;;;;;;;97.70;45.05;;;;;;;;;;5049662;28;20131;-71
2021/11/26 17:27:21;;;;;;;140.73;63.20;;;;;;;;;;5050353;28;20445;-72
2021/11/26 17:29:47;;;;;;;145.05;71.40;;;;;;;;;;5050455;28;20095;-73
2021/11/26 17:32:13;;;;;;;111.57;54.47;;;;;;;;;;5049864;28;20421;-74
2021/11/26 17:34:41;;;;;;;85.93;45.00;;;;;;;;;;5049153;28;20401;-73
2021/11/26 17:37:07;;;;;;;159.23;81.80;;;;;;;;;;5030870;28;20040;-71
2021/11/26 17:39:34;;;;;;;59.88;33.67;;;;;;;;;;5048692;28;20032;-71
2021/11/26 17:42:00;;;;;;;24.42;15.98;;;;;;;;;;5048801;28;20033;-71
2021/11/26 17:44:25;;;;;;;44.70;27.90;;;;;;;;;;5048956;28;20048;-71
2021/11/26 17:46:52;;;;;;;20.27;14.48;;;;;;;;;;5049678;28;20029;-71
2021/11/26 17:49:20;;;;;;;24.50;15.98;;;;;;;;;;5030663;28;20048;-71
2021/11/26 17:51:47;;;;;;;24.33;15.43;;;;;;;;;;5032109;28;20103;-71
2021/11/26 17:54:13;;;;;;;19.95;14.75;;;;;;;;;;5032123;28;20048;-71
2021/11/26 17:56:38;;;;;;;23.73;14.95;;;;;;;;;;5050172;28;20045;-71
2021/11/26 17:59:04;;;;;;;15.90;11.05;;;;;;;;;;5049884;28;20037;-71
2021/11/26 18:01:31;;;;;;;19.10;11.10;;;;;;;;;;5049591;28;20036;-71
2021/11/26 18:03:56;;;;;;;49.25;21.95;;;;;;;;;;5050040;28;20564;-70
2021/11/26 18:06:24;;;;;;;26.05;13.32;;;;;;;;;;5049599;28;20048;-70
2021/11/26 18:08:52;;;;;;;100.03;38.08;;;;;;;;;;5050040;28;20128;-70
2021/11/26 18:11:35;;;;;;;67.35;25.70;;;;;;;;;;5049699;28;20025;-70
2021/11/26 18:14:01;;;;;;;108.57;44.50;;;;;;;;;;5049862;28;20133;-71
2021/11/26 18:16:28;;;;;;;41.65;20.23;;;;;;;;;;5049939;28;20155;-71
2021/11/26 18:18:54;;;;;;;88.93;40.95;;;;;;;;;;5049963;28;20064;-70
2021/11/26 18:21:20;;;;;;;192.95;75.20;;;;;;;;;;5049678;28;20036;-70
2021/11/26 18:23:45;;;;;;;118.32;54.30;;;;;;;;;;5049297;28;20039;-70
2021/11/26 18:26:11;;;;;;;94.95;45.55;;;;;;;;;;5050020;28;20028;-71
2021/11/26 18:28:37;;;;;;;64.18;32.63;;;;;;;;;;5049960;28;20045;-71
2021/11/26 18:31:03;;;;;;;147.77;73.97;;;;;;;;;;5049661;28;20036;-71
2021/11/26 18:33:28;;;;;;;99.40;58.25;;;;;;;;;;5031757;28;20037;-71
2021/11/26 18:35:54;;;;;;;96.78;56.65;;;;;;;;;;5049216;28;20509;-71
2021/11/26 18:38:22;;;;;;;106.20;74.50;;;;;;;;;;5049244;28;20049;-71
2021/11/26 18:40:54;;;;;;;68.00;46.65;;;;;;;;;;5049653;28;20091;-71
2021/11/26 18:43:21;;;;;;;90.72;59.88;;;;;;;;;;5049653;28;20056;-72
2021/11/26 18:45:50;;;;;;;95.47;68.50;;;;;;;;;;5049936;28;20029;-71
2021/11/26 18:48:16;;;;;;;70.88;44.55;;;;;;;;;;5048947;28;20405;-72
2021/11/26 18:50:42;;;;;;;89.32;53.92;;;;;;;;;;5049576;28;20037;-72
2021/11/26 18:53:07;;;;;;;121.20;68.75;;;;;;;;;;5049326;28;20123;-71
2021/11/26 18:55:33;;;;;;;116.22;65.38;;;;;;;;;;5049582;28;20037;-71
2021/11/26 18:57:58;;;;;;;81.60;43.38;;;;;;;;;;5031059;28;20417;-71
2021/11/26 19:00:24;;;;;;;33.33;19.85;;;;;;;;;;5032944;28;20082;-71
2021/11/26 19:02:50;;;;;;;42.45;22.35;;;;;;;;;;5051330;28;20056;-71
2021/11/26 19:05:15;;;;;;;24.80;13.57;;;;;;;;;;5051485;28;20037;-71
2021/11/26 19:07:41;;;;;;;20.42;13.27;;;;;;;;;;5051799;28;20124;-71
2021/11/26 19:10:07;;;;;;;27.70;17.75;;;;;;;;;;5034147;28;20029;-71
2021/11/26 19:12:33;;;;;;;37.03;24.25;;;;;;;;;;5051810;28;20037;-71
2021/11/26 19:14:58;;;;;;;41.55;30.55;;;;;;;;;;5053266;28;20384;-71
2021/11/26 19:17:24;;;;;;;42.35;31.35;;;;;;;;;;5050532;28;20052;-71
2021/11/26 19:19:50;;;;;;;45.03;31.50;;;;;;;;;;5059833;28;20033;-71
2021/11/26 19:22:16;;;;;;;47.15;34.72;;;;;;;;;;5061625;28;20028;-71
2021/11/26 19:24:44;;;;;;;56.25;40.30;;;;;;;;;;5061108;28;20029;-70
2021/11/26 19:27:10;;;;;;;62.42;35.45;;;;;;;;;;5053987;28;20664;-71
2021/11/26 19:29:36;;;;;;;40.72;25.75;;;;;;;;;;5052160;28;20045;-70
2021/11/26 19:32:03;;;;;;;26.17;17.63;;;;;;;;;;5060978;28;20032;-71
2021/11/26 19:34:28;;;;;;;23.63;15.52;;;;;;;;;;5056937;28;20017;-71
2021/11/26 19:36:54;;;;;;;24.95;13.93;;;;;;;;;;5050528;28;20497;-71
2021/11/26 19:39:19;;;;;;;20.67;13.63;;;;;;;;;;5033196;28;20056;-70
2021/11/26 19:41:45;;;;;;;21.38;13.85;;;;;;;;;;5053550;28;20040;-74
2021/11/26 19:44:12;;;;;;;18.73;12.43;;;;;;;;;;5059284;28;20020;-73
2021/11/26 19:46:39;;;;;;;15.43;11.10;;;;;;;;;;5058289;28;20047;-69
2021/11/26 19:49:06;;;;;;;17.30;11.57;;;;;;;;;;5060992;28;20452;-70
2021/11/26 19:51:32;;;;;;;15.38;10.82;;;;;;;;;;5061211;28;20028;-74
2021/11/26 19:53:58;;;;;;;16.10;10.95;;;;;;;;;;5061227;28;20023;-73
2021/11/26 19:56:24;;;;;;;15.68;11.27;;;;;;;;;;5054100;28;20052;-73
2021/11/26 19:58:50;;;;;;;14.07;10.80;;;;;;;;;;5051703;28;20033;-73
2021/11/26 20:01:16;;;;;;;14.60;10.55;;;;;;;;;;5051708;28;20047;-73
2021/11/26 20:03:44;;;;;;;12.90;10.18;;;;;;;;;;5052116;28;20496;-73
2021/11/26 20:06:13;;;;;;;21.58;10.02;;;;;;;;;;5052130;28;20150;-73
2021/11/26 20:08:40;;;;;;;21.38;10.13;;;;;;;;;;5033919;28;20119;-73
2021/11/26 20:11:06;;;;;;;20.10;10.07;;;;;;;;;;5051043;28;20037;-73
2021/11/26 20:13:32;;;;;;;13.68;7.93;;;;;;;;;;5051395;28;20132;-73
2021/11/26 20:15:59;;;;;;;8.73;6.82;;;;;;;;;;5051849;28;20044;-73
2021/11/26 20:18:25;;;;;;;9.30;6.70;;;;;;;;;;5051821;28;20033;-73
2021/11/26 20:20:51;;;;;;;10.63;7.10;;;;;;;;;;5051754;28;20056;-73
2021/11/26 20:23:18;;;;;;;9.35;6.88;;;;;;;;;;5051491;28;20041;-73
2021/11/26 20:25:44;;;;;;;13.15;7.82;;;;;;;;;;5051106;28;20430;-73
2021/11/26 20:28:10;;;;;;;12.85;7.82;;;;;;;;;;5051671;28;20029;-73
2021/11/26 20:30:35;;;;;;;12.57;8.02;;;;;;;;;;5033336;28;20044;-73
2021/11/26 20:33:02;;;;;;;12.18;7.60;;;;;;;;;;5051260;28;20036;-73
2021/11/26 20:35:28;;;;;;;15.85;7.97;;;;;;;;;;5051385;28;20044;-73
2021/11/26 20:37:55;;;;;;;12.02;8.18;;;;;;;;;;5051093;28;20032;-73
2021/11/26 20:40:23;;;;;;;13.13;8.27;;;;;;;;;;5050961;28;20040;-73
2021/11/26 20:42:49;;;;;;;11.82;8.52;;;;;;;;;;5051027;28;20033;-73
2021/11/26 20:45:16;;;;;;;14.07;8.63;;;;;;;;;;5051338;28;20047;-73
2021/11/26 20:47:43;;;;;;;11.18;6.90;;;;;;;;;;5050963;28;20059;-70
2021/11/26 20:50:09;;;;;;;12.50;7.75;;;;;;;;;;5051323;28;20041;-70
2021/11/26 20:52:35;;;;;;;12.18;8.13;;;;;;;;;;5050991;28;20028;-69
2021/11/26 20:55:01;;;;;;;15.90;8.50;;;;;;;;;;5051202;28;20037;-70
2021/11/26 20:57:26;;;;;;;15.25;9.02;;;;;;;;;;5051636;28;20041;-70
2021/11/26 20:59:55;;;;;;;15.50;8.82;;;;;;;;;;5054278;28;20398;-69
2021/11/26 21:02:22;;;;;;;16.25;10.80;;;;;;;;;;5019882;28;20036;-70
2021/11/26 21:04:48;;;;;;;18.20;10.07;;;;;;;;;;5054153;28;20040;-70
2021/11/26 21:07:13;;;;;;;17.92;10.35;;;;;;;;;;5054498;28;20029;-70
2021/11/26 21:09:39;;;;;;;17.02;10.85;;;;;;;;;;5054176;28;20048;-70
2021/11/26 21:12:04;;;;;;;22.08;11.93;;;;;;;;;;5053647;28;20048;-70
2021/11/26 21:14:31;;;;;;;20.73;12.98;;;;;;;;;;5054242;28;20036;-70
2021/11/26 21:16:57;;;;;;;22.83;13.48;;;;;;;;;;5053794;28;20029;-70
2021/11/26 21:19:22;;;;;;;20.30;12.55;;;;;;;;;;5054111;28;20056;-70
2021/11/26 21:21:49;;;;;;;17.08;10.90;;;;;;;;;;5053727;28;20029;-70
2021/11/26 21:24:14;;;;;;;18.08;10.05;;;;;;;;;;5053893;28;20083;-70
2021/11/26 21:26:40;;;;;;;17.10;10.50;;;;;;;;;;5053690;28;20037;-70